createdAt,value
2019-02-18T00:00:43.148Z,16.30
2019-02-18T00:03:11.870Z,16.40
2019-02-18T00:05:40.475Z,16.20
2019-02-18T00:08:09.108Z,16.60
2019-02-18T00:10:37.787Z,16.40
2019-02-18T00:13:06.495Z,16.10
2019-02-18T00:15:35.631Z,15.80
2019-02-18T00:18:04.275Z,15.90
2019-02-18T00:20:33.005Z,16.50
2019-02-18T00:23:01.625Z,16.80
2019-02-18T00:25:32.000Z,16.60
2019-02-18T00:28:00.614Z,16.60
2019-02-18T00:30:29.273Z,16.80
2019-02-18T00:32:59.041Z,16.80
2019-02-18T00:35:27.597Z,16.70
2019-02-18T00:37:56.692Z,16.70
2019-02-18T00:40:25.485Z,16.90
2019-02-18T00:42:54.705Z,16.40
2019-02-18T00:45:23.994Z,16.00
2019-02-18T00:47:52.679Z,15.70
2019-02-18T00:50:21.239Z,15.70
2019-02-18T00:52:49.930Z,15.90
2019-02-18T00:55:18.527Z,16.10
2019-02-18T00:57:47.156Z,16.20
2019-02-18T01:00:17.635Z,16.30
2019-02-18T01:02:46.419Z,16.10
2019-02-18T01:05:15.897Z,16.00
2019-02-18T01:07:45.565Z,15.50
2019-02-18T01:10:15.941Z,15.40
2019-02-18T01:12:44.519Z,15.40
2019-02-18T01:15:15.683Z,15.00
2019-02-18T01:17:44.344Z,15.00
2019-02-18T01:20:14.060Z,15.40
2019-02-18T01:22:42.654Z,15.40
2019-02-18T01:25:13.539Z,15.80
2019-02-18T01:27:42.366Z,16.20
2019-02-18T01:30:13.735Z,16.40
2019-02-18T01:32:44.270Z,16.50
2019-02-18T01:35:13.088Z,16.50
2019-02-18T01:37:45.636Z,16.70
2019-02-18T01:40:13.624Z,16.70
2019-02-18T01:42:42.449Z,16.60
2019-02-18T01:45:14.309Z,16.90
2019-02-18T01:47:43.122Z,16.80
2019-02-18T01:50:13.585Z,16.80
2019-02-18T01:52:43.977Z,16.90
2019-02-18T01:55:13.436Z,16.40
2019-02-18T01:57:42.078Z,16.40
2019-02-18T02:00:15.423Z,16.20
2019-02-18T02:02:45.619Z,16.00
2019-02-18T02:05:16.405Z,15.80
2019-02-18T02:07:55.550Z,15.60
2019-02-18T02:10:15.834Z,15.90
2019-02-18T02:12:44.592Z,16.10
2019-02-18T02:15:16.825Z,15.70
2019-02-18T02:17:47.161Z,15.70
2019-02-18T02:20:17.349Z,15.50
2019-02-18T02:22:46.125Z,15.80
2019-02-18T02:25:14.750Z,16.00
2019-02-18T02:27:43.503Z,16.30
2019-02-18T02:30:12.111Z,16.20
2019-02-18T02:32:41.032Z,16.10
2019-02-18T02:35:11.048Z,16.20
2019-02-18T02:37:41.408Z,16.30
2019-02-18T02:40:10.171Z,16.60
2019-02-18T02:42:38.766Z,16.60
2019-02-18T02:45:08.440Z,16.60
2019-02-18T02:47:37.360Z,16.60
2019-02-18T02:50:07.245Z,16.80
2019-02-18T02:52:35.986Z,16.60
2019-02-18T02:55:05.926Z,16.80
2019-02-18T02:57:34.449Z,16.80
2019-02-18T03:00:03.515Z,16.70
2019-02-18T03:02:32.309Z,16.60
2019-02-18T03:05:01.044Z,16.30
2019-02-18T03:07:31.620Z,16.30
2019-02-18T03:10:00.372Z,16.40
2019-02-18T03:12:29.265Z,16.40
2019-02-18T03:14:58.009Z,16.20
2019-02-18T03:17:26.774Z,16.10
2019-02-18T03:19:55.323Z,16.30
2019-02-18T03:22:24.754Z,16.10
2019-02-18T03:25:20.651Z,16.40
2019-02-18T03:27:56.603Z,16.40
2019-02-18T03:30:42.634Z,16.60
2019-02-18T03:33:14.581Z,16.80
2019-02-18T03:35:43.267Z,16.80
2019-02-18T03:38:12.050Z,16.40
2019-02-18T03:40:40.840Z,16.10
2019-02-18T03:43:09.445Z,16.20
2019-02-18T03:45:38.353Z,16.20
2019-02-18T03:48:06.998Z,16.40
2019-02-18T03:50:35.679Z,16.30
2019-02-18T03:53:05.311Z,16.10
2019-02-18T03:55:34.044Z,16.20
2019-02-18T03:58:05.045Z,16.30
2019-02-18T04:00:34.716Z,16.40
2019-02-18T04:03:04.791Z,16.30
2019-02-18T04:05:35.423Z,16.20
2019-02-18T04:08:05.333Z,16.10
2019-02-18T04:10:34.669Z,15.90
2019-02-18T04:13:03.376Z,15.70
2019-02-18T04:15:32.008Z,15.70
2019-02-18T04:18:00.624Z,15.60
2019-02-18T04:20:29.230Z,15.50
2019-02-18T04:22:57.900Z,15.50
2019-02-18T04:25:26.387Z,15.20
2019-02-18T04:27:55.722Z,15.30
2019-02-18T04:30:25.824Z,15.10
2019-02-18T04:32:56.321Z,15.00
2019-02-18T04:35:25.862Z,15.10
2019-02-18T04:37:54.469Z,15.20
2019-02-18T04:40:25.546Z,15.30
2019-02-18T04:42:54.354Z,15.40
2019-02-18T04:45:22.915Z,15.20
2019-02-18T04:47:51.705Z,14.90
2019-02-18T04:50:20.909Z,14.80
2019-02-18T04:52:49.490Z,14.50
2019-02-18T04:55:18.234Z,14.60
2019-02-18T04:57:47.558Z,14.70
2019-02-18T05:00:16.292Z,14.80
2019-02-18T05:02:44.837Z,15.10
2019-02-18T05:05:13.567Z,15.20
2019-02-18T05:07:44.767Z,15.20
2019-02-18T05:10:13.468Z,15.30
2019-02-18T05:12:42.186Z,15.00
2019-02-18T05:15:10.839Z,14.90
2019-02-18T05:17:39.407Z,14.90
2019-02-18T05:20:08.933Z,14.90
2019-02-18T05:22:37.748Z,14.80
2019-02-18T05:25:08.229Z,14.70
2019-02-18T05:27:37.084Z,14.60
2019-02-18T05:30:09.161Z,14.40
2019-02-18T05:32:38.170Z,14.20
2019-02-18T05:35:07.987Z,14.00
2019-02-18T05:37:36.879Z,14.00
2019-02-18T05:40:08.236Z,14.20
2019-02-18T05:42:37.842Z,14.30
2019-02-18T05:45:08.476Z,14.60
2019-02-18T05:47:37.133Z,14.70
2019-02-18T05:50:07.992Z,14.70
2019-02-18T05:52:37.224Z,14.80
2019-02-18T05:55:07.287Z,14.90
2019-02-18T05:57:37.015Z,15.00
2019-02-18T06:00:11.803Z,15.00
2019-02-18T06:02:40.856Z,14.80
2019-02-18T06:05:10.068Z,14.80
2019-02-18T06:07:38.841Z,14.70
2019-02-18T06:10:09.016Z,14.60
2019-02-18T06:12:37.675Z,14.50
2019-02-18T06:15:09.238Z,14.60
2019-02-18T06:17:38.175Z,14.60
2019-02-18T06:20:12.524Z,14.60
2019-02-18T06:22:41.340Z,14.80
2019-02-18T06:25:11.905Z,14.70
2019-02-18T06:27:40.572Z,14.80
2019-02-18T06:30:10.506Z,14.80
2019-02-18T06:32:40.791Z,14.70
2019-02-18T06:35:09.602Z,14.70
2019-02-18T06:37:38.761Z,14.40
2019-02-18T06:40:10.469Z,14.50
2019-02-18T06:42:39.917Z,14.60
2019-02-18T06:45:11.995Z,14.60
2019-02-18T06:47:41.516Z,14.70
2019-02-18T06:50:10.581Z,14.50
2019-02-18T06:52:39.716Z,14.40
2019-02-18T06:55:10.450Z,14.10
2019-02-18T06:57:44.064Z,14.10
2019-02-18T07:00:14.919Z,14.00
2019-02-18T07:02:45.627Z,14.20
2019-02-18T07:05:16.146Z,14.20
2019-02-18T07:07:47.187Z,14.20
2019-02-18T07:10:18.234Z,14.10
2019-02-18T07:12:48.149Z,14.40
2019-02-18T07:15:17.118Z,14.60
2019-02-18T07:17:46.509Z,14.70
2019-02-18T07:20:17.028Z,15.00
2019-02-18T07:22:46.040Z,15.00
2019-02-18T07:25:16.743Z,14.80
2019-02-18T07:27:46.404Z,15.10
2019-02-18T07:30:16.034Z,15.20
2019-02-18T07:32:45.302Z,15.30
2019-02-18T07:35:17.444Z,15.20
2019-02-18T07:37:48.324Z,15.00
2019-02-18T07:40:19.589Z,15.10
2019-02-18T07:42:48.924Z,15.20
2019-02-18T07:45:18.556Z,15.30
2019-02-18T07:47:50.816Z,15.50
2019-02-18T07:50:21.065Z,15.70
2019-02-18T07:52:50.639Z,15.40
2019-02-18T07:55:20.729Z,15.60
2019-02-18T07:57:49.531Z,15.50
2019-02-18T08:00:19.100Z,15.50
2019-02-18T08:02:48.311Z,15.30
2019-02-18T08:05:17.922Z,15.40
2019-02-18T08:07:46.812Z,15.40
2019-02-18T08:10:16.111Z,15.60
2019-02-18T08:12:45.439Z,15.80
2019-02-18T08:15:15.028Z,15.80
2019-02-18T08:17:44.034Z,16.10
2019-02-18T08:20:13.460Z,16.00
2019-02-18T08:22:42.601Z,16.10
2019-02-18T08:25:13.545Z,16.10
2019-02-18T08:27:42.662Z,16.10
2019-02-18T08:30:13.956Z,16.10
2019-02-18T08:32:43.125Z,16.10
2019-02-18T08:35:12.265Z,16.20
2019-02-18T08:37:41.317Z,16.30
2019-02-18T08:40:10.567Z,16.40
2019-02-18T08:42:39.710Z,16.70
2019-02-18T08:45:12.142Z,17.00
2019-02-18T08:47:40.818Z,17.00
2019-02-18T08:50:12.057Z,17.20
2019-02-18T08:52:41.226Z,17.40
2019-02-18T08:55:13.219Z,17.40
2019-02-18T08:57:42.568Z,17.20
2019-02-18T09:00:14.267Z,17.50
2019-02-18T09:02:43.626Z,17.70
2019-02-18T09:05:13.120Z,18.10
2019-02-18T09:07:44.477Z,18.20
2019-02-18T09:10:14.787Z,18.20
2019-02-18T09:12:46.005Z,18.30
2019-02-18T09:15:15.961Z,18.10
2019-02-18T09:17:46.237Z,18.40
2019-02-18T09:20:15.354Z,18.50
2019-02-18T09:22:48.867Z,18.70
2019-02-18T09:25:19.710Z,18.60
2019-02-18T09:27:50.549Z,18.60
2019-02-18T09:30:22.210Z,18.80
2019-02-18T09:32:51.365Z,18.70
2019-02-18T09:35:23.476Z,18.80
2019-02-18T09:37:52.752Z,19.00
2019-02-18T09:40:23.374Z,19.10
2019-02-18T09:42:52.547Z,19.60
2019-02-18T09:45:21.723Z,19.80
2019-02-18T09:47:54.417Z,20.10
2019-02-18T09:50:23.929Z,20.00
2019-02-18T09:52:54.197Z,20.30
2019-02-18T09:55:23.361Z,20.30
2019-02-18T09:57:52.350Z,21.40
2019-02-18T10:00:21.763Z,23.30
2019-02-18T10:02:51.052Z,25.60
2019-02-18T10:05:20.269Z,27.80
2019-02-18T10:07:49.419Z,29.90
2019-02-18T10:10:20.016Z,31.80
2019-02-18T10:12:49.257Z,33.10
2019-02-18T10:15:18.362Z,34.00
2019-02-18T10:17:47.595Z,34.60
2019-02-18T10:20:16.780Z,35.30
2019-02-18T10:22:46.058Z,35.80
2019-02-18T10:25:15.280Z,36.20
2019-02-18T10:27:44.444Z,36.00
2019-02-18T10:30:13.659Z,36.00
2019-02-18T10:32:44.540Z,36.10
2019-02-18T10:35:15.158Z,36.40
2019-02-18T10:37:44.320Z,36.60
2019-02-18T10:40:15.263Z,36.70
2019-02-18T10:42:44.414Z,36.90
2019-02-18T10:45:13.958Z,36.90
2019-02-18T10:47:43.261Z,37.00
2019-02-18T10:50:12.772Z,37.40
2019-02-18T10:52:41.860Z,37.60
2019-02-18T10:55:11.954Z,37.70
2019-02-18T10:57:41.340Z,37.60
2019-02-18T11:00:15.401Z,37.40
2019-02-18T11:02:44.655Z,37.50
2019-02-18T11:05:14.129Z,37.50
2019-02-18T11:07:43.739Z,37.50
2019-02-18T11:10:16.341Z,37.50
2019-02-18T11:12:47.513Z,37.30
2019-02-18T11:15:16.175Z,37.10
2019-02-18T11:17:45.914Z,36.90
2019-02-18T11:20:15.194Z,36.90
2019-02-18T11:22:45.363Z,36.80
2019-02-18T11:25:15.682Z,36.60
2019-02-18T11:27:44.577Z,36.20
2019-02-18T11:30:19.079Z,36.00
2019-02-18T11:32:48.189Z,35.90
2019-02-18T11:35:18.934Z,35.40
2019-02-18T11:37:48.377Z,34.90
2019-02-18T11:40:20.414Z,34.00
2019-02-18T11:42:49.615Z,33.10
2019-02-18T11:45:18.721Z,32.20
2019-02-18T11:47:48.171Z,31.30
2019-02-18T11:50:17.185Z,30.50
2019-02-18T11:52:46.524Z,29.60
2019-02-18T11:55:15.711Z,28.60
2019-02-18T11:57:45.461Z,28.00
2019-02-18T12:00:15.861Z,27.40
2019-02-18T12:02:46.811Z,26.90
2019-02-18T12:05:16.099Z,26.50
2019-02-18T12:07:45.324Z,25.90
2019-02-18T12:10:14.997Z,25.40
2019-02-18T12:12:45.480Z,25.20
2019-02-18T12:15:15.731Z,25.30
2019-02-18T12:17:45.206Z,24.90
2019-02-18T12:20:17.082Z,24.50
2019-02-18T12:22:46.338Z,24.20
2019-02-18T12:25:16.006Z,23.90
2019-02-18T12:27:45.301Z,24.00
2019-02-18T12:30:16.720Z,24.00
2019-02-18T12:32:47.564Z,24.00
2019-02-18T12:35:19.563Z,24.10
2019-02-18T12:37:55.375Z,23.80
2019-02-18T12:40:21.090Z,23.80
2019-02-18T12:42:50.183Z,23.90
2019-02-18T12:45:19.367Z,23.90
2019-02-18T12:47:48.519Z,23.70
2019-02-18T12:50:17.677Z,23.70
2019-02-18T12:52:47.171Z,23.60
2019-02-18T12:55:17.346Z,23.60
2019-02-18T12:57:48.448Z,23.50
2019-02-18T13:00:21.540Z,23.40
2019-02-18T13:02:53.327Z,23.30
2019-02-18T13:05:22.817Z,23.30
2019-02-18T13:07:54.675Z,23.10
2019-02-18T13:10:34.729Z,23.00
2019-02-18T13:12:57.243Z,23.20
2019-02-18T13:15:26.210Z,23.40
2019-02-18T13:17:55.035Z,23.20
2019-02-18T13:20:24.440Z,23.10
2019-02-18T13:22:53.521Z,23.20
2019-02-18T13:25:23.086Z,23.20
2019-02-18T13:27:55.011Z,23.20
2019-02-18T13:30:24.413Z,23.30
2019-02-18T13:32:53.712Z,23.50
2019-02-18T13:35:24.322Z,23.50
2019-02-18T13:37:53.635Z,23.30
2019-02-18T13:40:22.817Z,23.50
2019-02-18T13:42:56.349Z,23.80
2019-02-18T13:45:26.022Z,23.90
2019-02-18T13:47:55.296Z,24.00
2019-02-18T13:50:25.032Z,24.00
2019-02-18T13:52:54.365Z,24.10
2019-02-18T13:55:24.075Z,24.00
2019-02-18T13:57:54.729Z,23.80
2019-02-18T14:00:24.066Z,23.70
2019-02-18T14:02:54.635Z,23.60
2019-02-18T14:05:24.143Z,23.50
2019-02-18T14:07:53.498Z,23.40
2019-02-18T14:10:23.085Z,23.20
2019-02-18T14:12:52.517Z,23.50
2019-02-18T14:15:22.116Z,23.70
2019-02-18T14:17:51.237Z,23.70
2019-02-18T14:20:22.067Z,23.70
2019-02-18T14:22:51.290Z,23.60
2019-02-18T14:25:20.953Z,23.60
2019-02-18T14:27:50.674Z,23.50
2019-02-18T14:30:20.254Z,23.60
2019-02-18T14:32:51.453Z,23.40
2019-02-18T14:35:20.923Z,23.60
2019-02-18T14:37:50.538Z,23.30
2019-02-18T14:40:22.916Z,23.40
2019-02-18T14:42:51.973Z,23.70
2019-02-18T14:45:22.611Z,24.00
2019-02-18T14:47:53.244Z,24.00
2019-02-18T14:50:22.551Z,23.80
2019-02-18T14:52:51.915Z,23.70
2019-02-18T14:55:21.050Z,23.70
2019-02-18T14:57:51.135Z,23.90
2019-02-18T15:00:23.497Z,23.70
2019-02-18T15:02:54.400Z,23.80
2019-02-18T15:05:24.061Z,23.60
2019-02-18T15:07:54.919Z,23.80
2019-02-18T15:10:24.236Z,23.90
2019-02-18T15:12:53.588Z,23.90
2019-02-18T15:15:22.913Z,23.70
2019-02-18T15:17:53.543Z,23.60
2019-02-18T15:20:23.941Z,23.70
2019-02-18T15:22:53.266Z,23.80
2019-02-18T15:25:22.810Z,23.60
2019-02-18T15:27:53.464Z,23.60
2019-02-18T15:30:24.984Z,23.40
2019-02-18T15:32:55.291Z,23.30
2019-02-18T15:35:26.387Z,23.10
2019-02-18T15:37:56.571Z,23.30
2019-02-18T15:40:25.797Z,23.30
2019-02-18T15:42:54.806Z,23.30
2019-02-18T15:45:24.285Z,23.20
2019-02-18T15:48:01.367Z,23.10
2019-02-18T15:50:24.375Z,23.10
2019-02-18T15:52:54.249Z,23.00
2019-02-18T15:55:23.579Z,22.90
2019-02-18T15:57:52.989Z,23.00
2019-02-18T16:00:25.367Z,23.00
2019-02-18T16:02:54.769Z,22.80
2019-02-18T16:05:24.040Z,22.70
2019-02-18T16:07:53.449Z,22.50
2019-02-18T16:10:22.763Z,22.50
2019-02-18T16:12:52.147Z,22.40
2019-02-18T16:15:22.111Z,22.40
2019-02-18T16:17:51.120Z,22.30
2019-02-18T16:20:20.574Z,22.30
2019-02-18T16:22:49.782Z,22.00
2019-02-18T16:25:21.814Z,21.80
2019-02-18T16:27:51.238Z,21.60
2019-02-18T16:30:20.397Z,21.50
2019-02-18T16:32:49.669Z,21.50
2019-02-18T16:35:18.940Z,21.20
2019-02-18T16:37:48.485Z,21.40
2019-02-18T16:40:18.740Z,21.30
2019-02-18T16:42:47.950Z,21.40
2019-02-18T16:45:17.246Z,21.50
2019-02-18T16:47:47.061Z,21.50
2019-02-18T16:50:16.217Z,21.40
2019-02-18T16:52:45.757Z,21.30
2019-02-18T16:55:16.022Z,21.30
2019-02-18T16:57:45.350Z,21.20
2019-02-18T17:00:29.051Z,21.10
2019-02-18T17:02:59.456Z,21.00
2019-02-18T17:05:29.053Z,21.10
2019-02-18T17:07:58.130Z,20.90
2019-02-18T17:10:29.467Z,20.90
2019-02-18T17:12:58.119Z,21.00
2019-02-18T17:15:32.116Z,20.90
2019-02-18T17:18:01.072Z,20.70
2019-02-18T17:20:30.216Z,20.60
2019-02-18T17:23:00.079Z,20.50
2019-02-18T17:29:10.575Z,20.20
2019-02-18T17:31:39.535Z,20.30
2019-02-18T17:34:08.496Z,20.30
2019-02-18T17:36:37.417Z,20.60
2019-02-18T17:39:06.684Z,20.40
2019-02-18T17:41:35.586Z,20.20
2019-02-18T17:44:04.678Z,20.20
2019-02-18T17:46:35.223Z,20.20
2019-02-18T17:49:03.978Z,20.20
2019-02-18T17:51:32.671Z,20.20
2019-02-18T17:54:02.010Z,20.20
2019-02-18T17:56:31.799Z,20.30
2019-02-18T17:59:01.050Z,20.40
2019-02-18T18:01:31.742Z,20.30
2019-02-18T18:04:01.209Z,20.20
2019-02-18T18:06:29.987Z,20.50
2019-02-18T18:08:58.730Z,20.30
2019-02-18T18:11:29.995Z,20.20
2019-02-18T18:13:59.128Z,20.30
2019-02-18T18:16:28.268Z,20.30
2019-02-18T18:18:57.287Z,20.20
2019-02-18T18:21:27.227Z,20.10
2019-02-18T18:23:56.678Z,20.20
2019-02-18T18:26:28.934Z,20.20
2019-02-18T18:29:01.537Z,20.30
2019-02-18T18:31:35.347Z,20.30
2019-02-18T18:34:04.279Z,20.20
2019-02-18T18:36:33.644Z,20.00
2019-02-18T18:39:03.326Z,20.20
2019-02-18T18:41:32.196Z,20.20
2019-02-18T18:44:01.203Z,20.10
2019-02-18T18:46:30.663Z,20.00
2019-02-18T18:48:59.640Z,20.00
2019-02-18T18:51:28.839Z,19.80
2019-02-18T18:53:57.857Z,19.80
2019-02-18T18:56:26.589Z,19.90
2019-02-18T18:58:55.209Z,20.00
2019-02-18T19:01:29.277Z,20.10
2019-02-18T19:03:58.167Z,20.10
2019-02-18T19:06:27.567Z,19.90
2019-02-18T19:08:56.661Z,19.90
2019-02-18T19:11:31.569Z,20.00
2019-02-18T19:14:00.634Z,19.90
2019-02-18T19:16:29.515Z,19.90
2019-02-18T19:18:58.403Z,19.80
2019-02-18T19:21:27.324Z,19.80
2019-02-18T19:23:56.195Z,19.70
2019-02-18T19:26:25.183Z,19.40
2019-02-18T19:28:54.169Z,19.10
2019-02-18T19:31:23.108Z,19.10
2019-02-18T19:33:52.057Z,19.00
2019-02-18T19:36:20.775Z,19.10
2019-02-18T19:38:49.437Z,19.00
2019-02-18T19:41:19.365Z,19.10
2019-02-18T19:43:50.311Z,18.90
2019-02-18T19:46:18.686Z,18.90
2019-02-18T19:48:49.080Z,19.00
2019-02-18T19:51:17.880Z,19.10
2019-02-18T19:53:46.640Z,18.90
2019-02-18T19:56:16.481Z,18.80
2019-02-18T19:58:45.368Z,18.90
2019-02-18T20:01:14.163Z,19.20
2019-02-18T20:03:43.363Z,19.30
2019-02-18T20:06:12.448Z,19.10
2019-02-18T20:08:41.280Z,18.80
2019-02-18T20:11:10.049Z,18.70
2019-02-18T20:13:38.920Z,18.50
2019-02-18T20:16:07.720Z,18.60
2019-02-18T20:18:39.041Z,18.50
2019-02-18T20:21:10.086Z,18.40
2019-02-18T20:23:38.874Z,18.50
2019-02-18T20:26:07.640Z,18.50
2019-02-18T20:28:36.882Z,18.60
2019-02-18T20:31:07.479Z,18.50
2019-02-18T20:33:37.480Z,18.50
2019-02-18T20:36:06.480Z,18.40
2019-02-18T20:38:35.402Z,18.20
2019-02-18T20:41:06.120Z,17.90
2019-02-18T20:43:34.994Z,17.80
2019-02-18T20:46:04.608Z,17.90
2019-02-18T20:48:33.600Z,18.00
2019-02-18T20:51:02.400Z,18.10
2019-02-18T20:53:32.001Z,18.20
2019-02-18T20:56:03.679Z,18.20
2019-02-18T20:58:32.572Z,18.20
2019-02-18T21:01:04.111Z,18.20
2019-02-18T21:03:32.866Z,18.20
2019-02-18T21:06:04.062Z,18.30
2019-02-18T21:08:33.207Z,18.10
2019-02-18T21:11:02.327Z,18.20
2019-02-18T21:13:33.131Z,18.00
2019-02-18T21:16:02.064Z,18.00
2019-02-18T21:18:31.131Z,17.90
2019-02-18T21:21:04.611Z,17.70
2019-02-18T21:23:33.749Z,17.50
2019-02-18T21:26:02.655Z,17.40
2019-02-18T21:28:31.813Z,17.30
2019-02-18T21:31:01.372Z,17.20
2019-02-18T21:33:30.432Z,17.10
2019-02-18T21:35:59.523Z,17.00
2019-02-18T21:38:28.459Z,17.20
2019-02-18T21:40:57.264Z,17.30
2019-02-18T21:43:26.294Z,17.50
2019-02-18T21:45:55.103Z,17.40
2019-02-18T21:48:24.013Z,17.30
2019-02-18T21:50:53.125Z,17.20
2019-02-18T21:53:22.289Z,17.10
2019-02-18T21:55:51.219Z,17.00
2019-02-18T21:58:20.323Z,16.80
2019-02-18T22:00:50.780Z,17.00
2019-02-18T22:03:30.196Z,17.30
2019-02-18T22:05:59.178Z,17.20
2019-02-18T22:08:28.257Z,17.10
2019-02-18T22:10:57.143Z,17.10
2019-02-18T22:13:26.045Z,17.00
2019-02-18T22:15:54.731Z,16.80
2019-02-18T22:18:23.345Z,16.80
2019-02-18T22:20:52.153Z,16.60
2019-02-18T22:23:21.214Z,16.50
2019-02-18T22:25:51.431Z,16.40
2019-02-18T22:28:20.816Z,16.40
2019-02-18T22:30:50.017Z,16.50
2019-02-18T22:33:20.372Z,16.60
2019-02-18T22:35:50.562Z,16.60
2019-02-18T22:38:19.354Z,16.70
2019-02-18T22:40:48.618Z,17.00
2019-02-18T22:43:17.325Z,16.90
2019-02-18T22:45:47.284Z,16.90
2019-02-18T22:48:16.021Z,16.80
2019-02-18T22:50:47.053Z,16.80
2019-02-18T22:53:16.772Z,16.60
2019-02-18T22:55:50.171Z,16.50
2019-02-18T22:58:31.048Z,16.40
2019-02-18T23:01:00.851Z,16.50
2019-02-18T23:03:29.433Z,16.60
2019-02-18T23:05:58.120Z,16.50
2019-02-18T23:08:26.806Z,16.40
2019-02-18T23:10:55.481Z,16.40
2019-02-18T23:13:24.061Z,16.40
2019-02-18T23:15:52.759Z,16.50
2019-02-18T23:18:22.041Z,16.30
2019-02-18T23:20:52.070Z,16.30
2019-02-18T23:23:20.580Z,16.30
2019-02-18T23:25:49.124Z,16.40
2019-02-18T23:28:18.219Z,16.30
2019-02-18T23:30:46.896Z,16.30
2019-02-18T23:33:15.375Z,16.30
2019-02-18T23:35:44.171Z,16.20
2019-02-18T23:38:12.668Z,16.10
2019-02-18T23:40:42.185Z,16.10
2019-02-18T23:43:10.842Z,16.40
2019-02-18T23:45:39.420Z,16.30
2019-02-18T23:48:08.262Z,16.40
2019-02-18T23:50:37.924Z,16.40
2019-02-18T23:53:06.605Z,16.40
2019-02-18T23:55:35.191Z,16.30
2019-02-18T23:58:03.985Z,16.10
